LGRP/RHO METAR and TAF weather

Enter ICAO airport designator
Station Type Date Time Source
LGRP METAR 2022/08/16 19:50 UTC NOAA

LGRP 161950Z 24009KT CAVOK 26/20 Q1008 NOSIG


Station Type Date Time Source
LGRP Decoded METAR 2022/08/16 19:50 UTC NOAA

Rhodes Airport , Greece (LGRP) 36-24N 028-05E 11M
Aug 16, 2022 - 03:50 PM EDT / 2022.08.16 1950 UTC
Wind: from the WSW (240 degrees) at 10 MPH (9 KT):0
Visibility: greater than 7 mile(s):0
Temperature: 78 F (26 C)
Dew Point: 68 F (20 C)
Relative Humidity: 69%
Pressure (altimeter): 29.77 in. Hg (1008 hPa)
ob: LGRP 161950Z 24009KT CAVOK 26/20 Q1008 NOSIG
cycle: 20

Station Type Date Time Source
LGRP TAF 2022/08/16 18:12 UTC NOAA

TAF LGRP 161700Z 1618/1718 24010KT 9999 FEW018

Example: see airport list